Pringle, South Dakota
Current Conditions -  °F | °C
As of 7:53 AM on Monday 22 Dec 2014 (Local Time) from KCUT Reporting Station
Broken Clouds Broken Clouds  
Wind Chill: 18°   Ceiling: 3500
Heat Index: 30°   Visibility: 10mi
Dew Point: 18°   Wind: 17mph
Humidity: 61%   Direction: 310°NW
Pressure: 29.55"   Gusts: 32mph
Location:  43.61°N, 103.59°W
Report Text: KCUT 221453Z AUTO 31015G28KT 280V360 10SM BKN035 M01/M08 A2955 RMK AO2 PK WND 32028/1453 SLP018 6//// T10111078 51005
Loading
Personal Weather Stations






























Interactive Weather Map New forecast layout! Learn more

10-Day Weather Forecast

Advertisements
Track Severe Weather on mobile